createdAt,value
2022-08-12T00:05:00.847Z,22.6
2022-08-12T00:20:00.844Z,22.4
2022-08-12T00:35:00.845Z,22.2
2022-08-12T00:50:00.843Z,22.2
2022-08-12T01:05:00.848Z,21.8
2022-08-12T01:20:00.864Z,21.6
2022-08-12T01:35:00.848Z,21.2
2022-08-12T01:50:00.841Z,20.9
2022-08-12T02:05:00.840Z,20.8
2022-08-12T02:20:00.848Z,20.6
2022-08-12T02:35:00.847Z,20.5
2022-08-12T02:50:00.849Z,20.2
2022-08-12T03:05:00.842Z,19.9
2022-08-12T03:20:09.006Z,19.8
2022-08-12T03:35:00.848Z,19.4
2022-08-12T03:50:00.834Z,19.4
2022-08-12T04:05:00.842Z,19.1
2022-08-12T04:20:00.844Z,19
2022-08-12T04:35:00.842Z,18.9
2022-08-12T04:50:00.845Z,18.9
2022-08-12T05:05:01.327Z,19
2022-08-12T05:20:00.844Z,18.9
2022-08-12T05:35:00.849Z,19.1
2022-08-12T05:50:00.844Z,19.5
2022-08-12T06:05:00.876Z,19.7
2022-08-12T06:20:22.220Z,19.9
2022-08-12T06:35:22.781Z,20.3
2022-08-12T06:50:00.844Z,20.7
2022-08-12T07:05:00.841Z,21.3
2022-08-12T07:20:04.405Z,21.8
2022-08-12T07:35:00.846Z,22.1
2022-08-12T07:50:03.879Z,22.2
2022-08-12T08:05:00.851Z,22.4
2022-08-12T08:20:03.470Z,22.9
2022-08-12T08:35:00.859Z,23.1
2022-08-12T08:50:00.850Z,23.7
2022-08-12T09:05:10.349Z,24.2
2022-08-12T09:20:00.843Z,24.5
2022-08-12T09:35:00.850Z,25.4
2022-08-12T09:50:00.849Z,25
2022-08-12T10:05:00.868Z,25.6
2022-08-12T10:20:01.382Z,26.2
2022-08-12T10:35:00.841Z,26.6
2022-08-12T10:50:33.839Z,26.8
2022-08-12T11:05:01.006Z,27.2
2022-08-12T11:20:01.964Z,27.1
2022-08-12T11:35:00.843Z,27.6
2022-08-12T11:50:01.307Z,27.5
2022-08-12T12:05:00.822Z,27.6
2022-08-12T12:20:00.833Z,28.2
2022-08-12T12:35:13.239Z,28.1
2022-08-12T12:50:00.843Z,28.1
2022-08-12T13:05:00.841Z,29
2022-08-12T13:20:00.857Z,29.2
2022-08-12T13:35:04.089Z,29
2022-08-12T13:50:00.858Z,29.8
2022-08-12T14:05:00.853Z,30.8
2022-08-12T14:20:01.105Z,32.9
2022-08-12T14:35:00.850Z,34.1
2022-08-12T14:50:33.430Z,34.4
2022-08-12T15:05:00.850Z,34.3
2022-08-12T15:20:12.434Z,34.7
2022-08-12T15:35:00.871Z,35.3
2022-08-12T15:50:01.406Z,35.6
2022-08-12T16:05:01.258Z,35.3
2022-08-12T16:20:02.085Z,35.3
2022-08-12T16:35:00.973Z,35.8
2022-08-12T16:50:00.865Z,34.8
2022-08-12T17:05:01.003Z,35.7
2022-08-12T17:20:16.849Z,35.2
2022-08-12T17:35:00.847Z,34.2
2022-08-12T17:50:02.653Z,33.4
2022-08-12T18:05:05.588Z,32.2
2022-08-12T18:20:04.495Z,31.3
2022-08-12T18:35:01.139Z,30.6
2022-08-12T18:50:00.897Z,30
2022-08-12T19:05:03.182Z,29.8
2022-08-12T19:20:00.845Z,29.4
2022-08-12T19:50:00.893Z,28.5
2022-08-12T20:05:25.618Z,27.9
2022-08-12T20:20:16.513Z,27.4
2022-08-12T20:35:00.845Z,26.9
2022-08-12T20:50:00.848Z,26.6
2022-08-12T21:05:00.839Z,26.2
2022-08-12T21:20:00.849Z,25.5
2022-08-12T21:35:00.841Z,25.1
2022-08-12T21:50:02.167Z,24.8
2022-08-12T22:05:00.856Z,24.6
2022-08-12T22:20:00.841Z,24.4
2022-08-12T22:35:00.846Z,23.9
2022-08-12T22:50:00.849Z,23.7
2022-08-12T23:05:01.034Z,23.5
2022-08-12T23:20:00.842Z,23.2
2022-08-12T23:35:00.839Z,22.9
2022-08-12T23:50:03.226Z,22.9
